createdAt,value
2018-04-29T00:02:27.283Z,11.10
2018-04-29T00:04:56.684Z,11.00
2018-04-29T00:07:25.347Z,11.00
2018-04-29T00:09:53.964Z,11.00
2018-04-29T00:12:22.325Z,11.00
2018-04-29T00:14:50.920Z,10.90
2018-04-29T00:17:19.531Z,10.90
2018-04-29T00:19:48.932Z,10.70
2018-04-29T00:22:17.565Z,10.80
2018-04-29T00:24:46.167Z,10.70
2018-04-29T00:27:23.558Z,10.50
2018-04-29T00:29:51.885Z,10.50
2018-04-29T00:32:20.573Z,10.50
2018-04-29T00:34:49.194Z,10.50
2018-04-29T00:37:17.852Z,10.40
2018-04-29T00:39:47.249Z,10.50
2018-04-29T00:42:16.640Z,10.50
2018-04-29T00:44:45.069Z,10.50
2018-04-29T00:47:13.686Z,10.50
2018-04-29T00:49:42.332Z,10.40
2018-04-29T00:52:10.991Z,10.40
2018-04-29T00:54:39.633Z,10.30
2018-04-29T00:57:08.227Z,10.40
2018-04-29T00:59:36.892Z,10.30
2018-04-29T01:02:05.533Z,10.30
2018-04-29T01:04:34.351Z,10.30
2018-04-29T01:07:02.994Z,10.30
2018-04-29T01:09:31.630Z,10.30
2018-04-29T01:12:00.259Z,10.20
2018-04-29T01:14:28.848Z,10.20
2018-04-29T01:16:57.473Z,10.10
2018-04-29T01:19:26.870Z,10.10
2018-04-29T01:21:55.481Z,10.10
2018-04-29T01:24:24.142Z,10.10
2018-04-29T01:26:52.797Z,10.10
2018-04-29T01:29:21.433Z,10.10
2018-04-29T01:31:50.840Z,10.00
2018-04-29T01:34:20.217Z,10.00
2018-04-29T01:36:48.856Z,10.00
2018-04-29T01:39:17.481Z,10.00
2018-04-29T01:41:46.083Z,10.00
2018-04-29T01:44:14.728Z,9.90
2018-04-29T01:46:43.367Z,9.90
2018-04-29T01:49:12.022Z,9.90
2018-04-29T01:51:40.612Z,9.80
2018-04-29T01:54:09.236Z,9.80
2018-04-29T01:56:38.623Z,9.70
2018-04-29T01:59:07.234Z,9.70
2018-04-29T02:01:35.898Z,9.70
2018-04-29T02:04:04.527Z,9.60
2018-04-29T02:06:33.165Z,9.50
2018-04-29T02:09:01.774Z,9.50
2018-04-29T02:11:31.167Z,9.50
2018-04-29T02:13:59.784Z,9.50
2018-04-29T02:16:29.202Z,9.50
2018-04-29T02:18:57.842Z,9.50
2018-04-29T02:21:26.478Z,9.50
2018-04-29T02:23:55.127Z,9.40
2018-04-29T02:26:23.746Z,9.40
2018-04-29T02:28:52.390Z,9.40
2018-04-29T02:31:21.065Z,9.40
2018-04-29T02:33:49.802Z,9.40
2018-04-29T02:36:18.387Z,9.30
2018-04-29T02:38:47.781Z,9.20
2018-04-29T02:41:17.171Z,9.20
2018-04-29T02:43:45.767Z,9.20
2018-04-29T02:46:14.402Z,9.20
2018-04-29T02:48:43.020Z,9.20
2018-04-29T02:51:11.637Z,9.10
2018-04-29T02:53:41.005Z,9.10
2018-04-29T02:56:09.639Z,9.10
2018-04-29T02:58:38.273Z,9.10
2018-04-29T03:01:06.864Z,9.10
2018-04-29T03:03:35.474Z,9.20
2018-04-29T03:06:04.063Z,9.20
2018-04-29T03:08:32.713Z,9.20
2018-04-29T03:11:01.303Z,9.20
2018-04-29T03:13:29.925Z,9.20
2018-04-29T03:15:58.546Z,9.10
2018-04-29T03:18:27.167Z,9.10
2018-04-29T03:20:55.800Z,9.10
2018-04-29T03:23:24.400Z,9.10
2018-04-29T03:25:53.069Z,9.10
2018-04-29T03:28:22.434Z,9.00
2018-04-29T03:30:51.063Z,9.00
2018-04-29T03:33:20.421Z,8.90
2018-04-29T03:35:49.027Z,8.90
2018-04-29T03:38:17.678Z,8.90
2018-04-29T03:40:46.264Z,8.90
2018-04-29T03:43:14.949Z,8.90
2018-04-29T03:45:44.476Z,8.80
2018-04-29T03:48:13.116Z,8.80
2018-04-29T03:50:42.501Z,8.70
2018-04-29T03:53:11.123Z,8.70
2018-04-29T03:55:39.756Z,8.70
2018-04-29T03:58:19.721Z,8.60
2018-04-29T04:00:59.386Z,8.70
2018-04-29T04:03:39.935Z,8.60
2018-04-29T04:06:08.539Z,8.60
2018-04-29T04:08:37.166Z,8.60
2018-04-29T04:11:05.753Z,8.60
2018-04-29T04:13:34.367Z,8.70
2018-04-29T04:16:02.992Z,8.80
2018-04-29T04:18:32.419Z,9.00
2018-04-29T04:21:01.028Z,9.00
2018-04-29T04:23:29.620Z,9.00
2018-04-29T04:25:58.242Z,9.00
2018-04-29T04:28:26.859Z,9.00
2018-04-29T04:30:55.495Z,8.80
2018-04-29T04:33:24.117Z,8.60
2018-04-29T04:36:01.660Z,8.50
2018-04-29T04:38:30.295Z,8.50
2018-04-29T04:40:58.930Z,8.60
2018-04-29T04:43:27.561Z,8.60
2018-04-29T04:45:56.216Z,8.60
2018-04-29T04:48:24.619Z,8.60
2018-04-29T04:50:53.238Z,8.50
2018-04-29T04:53:22.638Z,8.60
2018-04-29T04:55:51.873Z,8.50
2018-04-29T04:58:20.488Z,8.50
2018-04-29T05:00:49.089Z,8.50
2018-04-29T05:03:17.728Z,8.50
2018-04-29T05:05:46.364Z,8.50
2018-04-29T05:08:14.956Z,8.50
2018-04-29T05:10:43.600Z,8.50
2018-04-29T05:13:12.211Z,8.70
2018-04-29T05:15:40.851Z,8.80
2018-04-29T05:18:10.248Z,9.20
2018-04-29T05:20:38.897Z,9.20
2018-04-29T05:23:07.533Z,9.30
2018-04-29T05:25:36.136Z,9.30
2018-04-29T05:28:04.566Z,9.40
2018-04-29T05:30:33.151Z,9.60
2018-04-29T05:33:01.797Z,9.90
2018-04-29T05:35:30.501Z,10.10
2018-04-29T05:37:59.247Z,10.30
2018-04-29T05:40:27.905Z,10.50
2018-04-29T05:42:56.584Z,10.60
2018-04-29T05:45:25.175Z,10.80
2018-04-29T05:47:53.772Z,11.10
2018-04-29T05:50:22.386Z,11.30
2018-04-29T05:52:51.965Z,11.50
2018-04-29T05:55:20.747Z,11.50
2018-04-29T05:57:49.324Z,11.70
2018-04-29T06:00:17.979Z,11.70
2018-04-29T06:02:46.777Z,11.80
2018-04-29T06:05:15.423Z,12.00
2018-04-29T06:07:44.823Z,12.30
2018-04-29T06:10:13.429Z,12.30
2018-04-29T06:12:42.834Z,12.30
2018-04-29T06:15:11.454Z,12.30
2018-04-29T06:17:40.075Z,12.50
2018-04-29T06:20:08.937Z,12.60
2018-04-29T06:22:39.217Z,12.70
2018-04-29T06:25:08.935Z,13.00
2018-04-29T06:27:37.543Z,13.40
2018-04-29T06:30:06.169Z,13.50
2018-04-29T06:32:34.856Z,14.00
2018-04-29T06:35:03.462Z,14.70
2018-04-29T06:37:32.084Z,15.00
2018-04-29T06:40:00.768Z,15.30
2018-04-29T06:42:29.911Z,16.00
2018-04-29T06:44:58.632Z,16.00
2018-04-29T06:47:38.896Z,15.80
2018-04-29T06:50:07.535Z,15.40
2018-04-29T06:52:36.164Z,15.20
2018-04-29T06:55:04.942Z,15.40
2018-04-29T06:57:34.629Z,15.70
2018-04-29T07:00:03.257Z,16.10
2018-04-29T07:02:32.646Z,16.60
2018-04-29T07:05:01.309Z,16.60
2018-04-29T07:07:29.919Z,16.20
2018-04-29T07:09:58.520Z,16.00
2018-04-29T07:12:27.146Z,16.00
2018-04-29T07:14:55.847Z,15.80
2018-04-29T07:17:26.567Z,15.60
2018-04-29T07:19:55.242Z,15.70
2018-04-29T07:22:28.092Z,15.60
2018-04-29T07:24:56.705Z,15.20
2018-04-29T07:27:25.331Z,14.80
2018-04-29T07:29:53.980Z,14.60
2018-04-29T07:32:23.358Z,14.50
2018-04-29T07:34:52.028Z,14.50
2018-04-29T07:37:21.433Z,14.40
2018-04-29T07:39:50.119Z,14.40
2018-04-29T07:42:18.948Z,14.30
2018-04-29T07:44:47.561Z,14.30
2018-04-29T07:47:16.230Z,14.30
2018-04-29T07:49:44.841Z,14.50
2018-04-29T07:52:13.489Z,14.90
2018-04-29T07:54:42.232Z,15.10
2018-04-29T07:57:10.900Z,15.20
2018-04-29T07:59:40.578Z,15.20
2018-04-29T08:02:09.199Z,15.40
2018-04-29T08:04:37.834Z,15.60
2018-04-29T08:07:06.531Z,15.80
2018-04-29T08:09:35.722Z,15.90
2018-04-29T08:12:04.980Z,16.30
2018-04-29T08:14:33.592Z,16.60
2018-04-29T08:17:02.180Z,16.90
2018-04-29T08:19:30.799Z,17.00
2018-04-29T08:21:59.456Z,17.00
2018-04-29T08:24:28.883Z,17.50
2018-04-29T08:26:57.546Z,17.50
2018-04-29T08:29:26.171Z,17.60
2018-04-29T08:31:55.133Z,17.80
2018-04-29T08:34:23.772Z,17.90
2018-04-29T08:36:53.751Z,18.50
2018-04-29T08:39:22.375Z,18.50
2018-04-29T08:41:51.132Z,19.00
2018-04-29T08:44:19.910Z,19.30
2018-04-29T08:46:48.540Z,19.50
2018-04-29T08:49:17.150Z,19.60
2018-04-29T08:51:45.776Z,19.50
2018-04-29T08:54:14.398Z,19.40
2018-04-29T08:56:42.991Z,19.60
2018-04-29T08:59:11.695Z,19.80
2018-04-29T09:01:42.207Z,20.10
2018-04-29T09:04:10.857Z,20.10
2018-04-29T09:06:39.460Z,20.30
2018-04-29T09:09:08.146Z,20.40
2018-04-29T09:11:36.775Z,20.30
2018-04-29T09:14:06.200Z,20.00
2018-04-29T09:16:34.976Z,19.90
2018-04-29T09:19:03.623Z,20.00
2018-04-29T09:21:33.241Z,19.90
2018-04-29T09:24:01.882Z,19.80
2018-04-29T09:26:30.483Z,19.90
2018-04-29T09:28:59.037Z,20.10
2018-04-29T09:31:27.632Z,20.20
2018-04-29T09:33:56.294Z,20.30
2018-04-29T09:36:37.007Z,19.80
2018-04-29T09:39:07.389Z,19.90
2018-04-29T09:41:36.106Z,19.70
2018-04-29T09:44:04.613Z,19.70
2018-04-29T09:46:34.228Z,19.70
2018-04-29T09:49:02.642Z,19.90
2018-04-29T09:51:31.011Z,20.10
2018-04-29T09:53:59.620Z,20.40
2018-04-29T09:56:29.014Z,21.00
2018-04-29T09:58:57.645Z,21.00
2018-04-29T10:01:26.044Z,21.20
2018-04-29T10:03:54.687Z,21.30
2018-04-29T10:06:24.083Z,22.30
2018-04-29T10:08:52.765Z,22.30
2018-04-29T10:11:22.230Z,23.00
2018-04-29T10:23:52.637Z,23.80
2018-04-29T10:26:21.487Z,23.80
2018-04-29T10:28:50.139Z,23.20
2018-04-29T10:31:18.800Z,23.40
2018-04-29T14:41:34.947Z,31.50
2018-04-29T14:44:03.613Z,31.00
2018-04-29T14:46:32.244Z,30.20
2018-04-29T14:49:07.399Z,29.80
2018-04-29T14:51:42.984Z,29.80
2018-04-29T14:54:11.407Z,29.80
2018-04-29T14:56:40.628Z,29.50
2018-04-29T14:59:09.319Z,30.10
2018-04-29T15:01:45.880Z,30.90
2018-04-29T15:04:15.189Z,30.90
2018-04-29T15:34:10.295Z,29.50
2018-04-29T15:36:38.919Z,29.10
2018-04-29T15:39:08.705Z,28.70
2018-04-29T15:41:37.381Z,28.20
2018-04-29T15:44:06.022Z,28.30
2018-04-29T15:46:34.779Z,28.30
2018-04-29T15:49:03.659Z,27.90
2018-04-29T15:51:33.025Z,28.00
2018-04-29T15:54:01.741Z,27.90
2018-04-29T15:56:30.427Z,28.00
2018-04-29T15:58:59.473Z,27.80
2018-04-29T16:01:28.238Z,27.50
2018-04-29T16:03:57.744Z,26.50
2018-04-29T16:06:27.161Z,26.60
2018-04-29T16:08:55.870Z,26.50
2018-04-29T16:11:24.504Z,26.50
2018-04-29T16:13:53.124Z,26.70
2018-04-29T16:16:22.521Z,26.30
2018-04-29T16:18:51.156Z,26.30
2018-04-29T16:21:19.789Z,26.20
2018-04-29T16:23:49.046Z,25.90
2018-04-29T16:26:17.859Z,25.90
2018-04-29T16:28:46.509Z,26.10
2018-04-29T16:31:16.280Z,26.40
2018-04-29T16:33:49.289Z,26.70
2018-04-29T16:36:18.667Z,26.50
2018-04-29T16:38:47.346Z,26.50
2018-04-29T16:41:16.510Z,26.30
2018-04-29T16:43:45.164Z,26.10
2018-04-29T16:46:13.776Z,26.00
2018-04-29T16:48:42.428Z,25.90
2018-04-29T16:51:11.035Z,25.70
2018-04-29T16:53:39.461Z,25.60
2018-04-29T16:56:08.063Z,25.50
2018-04-29T16:58:36.677Z,25.40
2018-04-29T17:01:06.098Z,25.10
2018-04-29T17:03:34.734Z,25.10
2018-04-29T17:06:03.393Z,25.00
2018-04-29T17:08:32.045Z,24.80
2018-04-29T17:11:01.499Z,24.50
2018-04-29T17:13:30.153Z,24.50
2018-04-29T17:15:58.955Z,24.40
2018-04-29T17:18:28.404Z,24.20
2018-04-29T17:20:57.068Z,24.20
2018-04-29T17:23:25.673Z,24.10
2018-04-29T17:25:54.131Z,24.00
2018-04-29T17:28:22.773Z,23.90
2018-04-29T17:30:51.621Z,23.80
2018-04-29T17:33:20.250Z,23.60
2018-04-29T17:35:49.622Z,23.20
2018-04-29T17:38:18.216Z,23.20
2018-04-29T17:40:46.909Z,22.90
2018-04-29T17:43:15.571Z,22.70
2018-04-29T17:45:44.270Z,22.50
2018-04-29T17:48:13.802Z,22.20
2018-04-29T17:50:42.478Z,22.10
2018-04-29T17:53:12.473Z,22.00
2018-04-29T17:55:41.267Z,21.90
2018-04-29T17:58:09.861Z,21.80
2018-04-29T18:00:44.106Z,21.80
2018-04-29T18:03:12.694Z,21.80
2018-04-29T18:05:41.349Z,21.70
2018-04-29T18:08:28.663Z,21.60
2018-04-29T18:10:57.401Z,21.60
2018-04-29T18:13:26.058Z,21.50
2018-04-29T18:15:54.746Z,21.40
2018-04-29T18:18:23.355Z,21.30
2018-04-29T18:21:03.931Z,21.20
2018-04-29T18:23:33.807Z,21.10
2018-04-29T18:26:06.347Z,21.00
2018-04-29T18:28:35.957Z,20.80
2018-04-29T18:31:13.986Z,20.80
2018-04-29T18:33:49.611Z,20.70
2018-04-29T18:36:19.212Z,20.50
2018-04-29T18:39:27.453Z,20.40
2018-04-29T18:42:10.440Z,20.20
2018-04-29T18:44:39.737Z,20.20
2018-04-29T18:47:18.689Z,19.90
2018-04-29T18:49:48.099Z,19.80
2018-04-29T18:52:18.646Z,19.70
2018-04-29T18:54:47.262Z,19.70
2018-04-29T18:57:16.043Z,19.70
2018-04-29T18:59:44.868Z,19.90
2018-04-29T19:02:27.092Z,20.00
2018-04-29T19:04:56.643Z,20.30
2018-04-29T19:07:26.190Z,20.40
2018-04-29T19:09:54.832Z,20.30
2018-04-29T19:12:23.548Z,20.40
2018-04-29T19:14:52.191Z,20.20
2018-04-29T19:17:21.561Z,20.20
2018-04-29T19:19:50.231Z,20.20
2018-04-29T19:22:18.839Z,20.20
2018-04-29T19:24:57.646Z,20.20
2018-04-29T19:27:27.263Z,20.20
2018-04-29T19:30:01.923Z,20.10
2018-04-29T19:32:47.319Z,20.10
2018-04-29T19:35:17.331Z,20.00
2018-04-29T19:37:57.293Z,19.90
2018-04-29T19:40:25.947Z,19.90
2018-04-29T19:42:59.045Z,19.90
2018-04-29T19:45:28.792Z,19.90
2018-04-29T19:47:57.420Z,19.90
2018-04-29T19:50:26.046Z,19.80
2018-04-29T19:52:55.264Z,19.80
2018-04-29T19:55:23.903Z,19.80
2018-04-29T19:57:53.634Z,19.70
2018-04-29T20:00:27.754Z,19.70
2018-04-29T20:03:01.096Z,19.60
2018-04-29T20:05:29.838Z,19.60
2018-04-29T20:08:03.252Z,19.50
2018-04-29T20:10:34.696Z,19.50
2018-04-29T20:13:03.102Z,19.40
2018-04-29T20:15:31.552Z,19.40
2018-04-29T20:18:00.138Z,19.40
2018-04-29T20:20:28.748Z,19.40
2018-04-29T20:22:57.375Z,19.30
2018-04-29T20:25:26.350Z,19.20
2018-04-29T20:27:54.941Z,19.10
2018-04-29T20:30:23.646Z,18.80
2018-04-29T20:32:53.009Z,18.20
2018-04-29T20:35:44.969Z,18.00
2018-04-29T20:38:13.927Z,18.00
2018-04-29T20:40:42.730Z,17.90
2018-04-29T20:43:11.372Z,17.90
2018-04-29T20:45:39.971Z,17.80
2018-04-29T20:48:08.768Z,17.90
2018-04-29T20:50:37.407Z,17.90
2018-04-29T20:53:06.079Z,18.00
2018-04-29T20:55:34.685Z,18.10
2018-04-29T20:58:03.727Z,18.00
2018-04-29T21:00:32.615Z,18.00
2018-04-29T21:03:01.212Z,18.00
2018-04-29T21:05:29.824Z,18.20
2018-04-29T21:07:59.189Z,18.20
2018-04-29T21:10:27.624Z,18.20
2018-04-29T21:12:57.287Z,18.10
2018-04-29T21:15:25.959Z,18.10
2018-04-29T21:17:54.589Z,18.00
2018-04-29T21:20:23.232Z,17.80
2018-04-29T21:22:52.073Z,17.60
2018-04-29T21:25:20.689Z,17.40
2018-04-29T21:27:49.400Z,17.30
2018-04-29T21:30:17.999Z,17.20
2018-04-29T21:32:46.631Z,17.10
2018-04-29T21:35:15.249Z,17.10
2018-04-29T21:37:43.893Z,17.00
2018-04-29T21:40:13.324Z,17.20
2018-04-29T21:42:41.967Z,17.10
2018-04-29T21:45:10.639Z,17.30
2018-04-29T21:47:39.270Z,17.30
2018-04-29T21:50:07.971Z,17.30
2018-04-29T21:52:36.620Z,17.30
2018-04-29T21:55:05.256Z,17.30
2018-04-29T21:57:33.887Z,17.20
2018-04-29T22:00:02.517Z,17.10
2018-04-29T22:02:31.145Z,17.00
2018-04-29T22:04:59.749Z,16.90
2018-04-29T22:07:28.370Z,16.80
2018-04-29T22:09:56.952Z,16.70
2018-04-29T22:12:26.360Z,16.70
2018-04-29T22:15:10.192Z,16.80
2018-04-29T22:17:39.624Z,16.90
2018-04-29T22:20:07.944Z,16.90
2018-04-29T22:22:41.973Z,17.00
2018-04-29T22:25:10.546Z,16.90
2018-04-29T22:27:39.091Z,16.80
2018-04-29T22:30:07.354Z,16.70
2018-04-29T22:32:36.651Z,16.50
2018-04-29T22:35:05.228Z,16.50
2018-04-29T22:37:33.761Z,16.50
2018-04-29T22:40:02.321Z,16.40
2018-04-29T22:42:31.697Z,16.50
2018-04-29T22:44:59.921Z,16.40
2018-04-29T22:47:28.493Z,16.40
2018-04-29T22:49:57.789Z,16.30
2018-04-29T22:52:36.776Z,16.30
2018-04-29T22:55:05.022Z,16.30
2018-04-29T22:57:33.590Z,16.20
2018-04-29T23:00:02.168Z,16.20
2018-04-29T23:02:31.473Z,16.10
2018-04-29T23:05:00.820Z,16.10
2018-04-29T23:07:29.349Z,16.10
2018-04-29T23:09:58.678Z,16.40
2018-04-29T23:12:27.209Z,16.40
2018-04-29T23:14:55.770Z,16.50
2018-04-29T23:17:24.295Z,16.60
2018-04-29T23:19:52.893Z,17.20
2018-04-29T23:22:21.445Z,17.60
2018-04-29T23:24:50.007Z,18.00
2018-04-29T23:27:18.550Z,18.50
2018-04-29T23:29:47.875Z,18.80
2018-04-29T23:32:16.425Z,18.80
2018-04-29T23:34:44.982Z,18.90
2018-04-29T23:37:13.549Z,18.80
2018-04-29T23:39:42.092Z,19.00
2018-04-29T23:42:11.422Z,18.90
2018-04-29T23:44:39.978Z,18.90
2018-04-29T23:47:08.534Z,18.80
2018-04-29T23:49:37.149Z,18.80
2018-04-29T23:52:05.713Z,19.00
2018-04-29T23:54:34.262Z,18.90
2018-04-29T23:57:02.807Z,19.00
2018-04-29T23:59:31.371Z,19.00
